Time;durP1;ratioP1;P1;durP2;ratioP2;P2;SDS_P1;SDS_P2;PMS_P1;PMS_P2;Temp;Humidity;BMP_temperature;BMP_pressure;BME280_temperature;BME280_humidity;BME280_pressure;Samples;Min_cycle;Max_cycle;Signal;HPM_P1;HPM_P2
2024/03/15 00:02:15;;;;;;;15.70;11.90;;;;;;;;;;5024558;28;20216;-88
2024/03/15 00:05:20;;;;;;;17.10;11.90;;;;;;;;;;5036722;28;20177;-88
2024/03/15 00:08:26;;;;;;;15.00;11.10;;;;;;;;;;5035541;28;20189;-87
2024/03/15 00:11:30;;;;;;;14.53;11.30;;;;;;;;;;5036585;28;20176;-87
2024/03/15 00:14:35;;;;;;;13.90;10.50;;;;;;;;;;5035627;28;20177;-88
2024/03/15 00:17:39;;;;;;;15.07;10.57;;;;;;;;;;5013134;28;20185;-88
2024/03/15 00:20:45;;;;;;;14.07;9.87;;;;;;;;;;5024053;28;20629;-88
2024/03/15 00:23:50;;;;;;;14.70;9.57;;;;;;;;;;5012154;28;20224;-87
2024/03/15 00:26:55;;;;;;;12.50;9.50;;;;;;;;;;5024044;28;20228;-87
2024/03/15 00:29:59;;;;;;;14.90;9.40;;;;;;;;;;5035572;28;20185;-87
2024/03/15 00:33:03;;;;;;;11.03;8.70;;;;;;;;;;5035233;28;20212;-88
2024/03/15 00:36:07;;;;;;;10.83;8.30;;;;;;;;;;5023714;28;20633;-87
2024/03/15 00:39:11;;;;;;;11.37;8.93;;;;;;;;;;5023635;28;20185;-87
2024/03/15 00:42:15;;;;;;;12.30;9.30;;;;;;;;;;5023335;28;20220;-88
2024/03/15 00:45:19;;;;;;;14.47;9.70;;;;;;;;;;5035215;28;20173;-88
2024/03/15 00:48:24;;;;;;;14.40;10.33;;;;;;;;;;5035569;28;20181;-88
2024/03/15 00:51:28;;;;;;;16.87;10.40;;;;;;;;;;5035916;28;20185;-87
2024/03/15 00:54:34;;;;;;;12.73;9.43;;;;;;;;;;5035214;28;20177;-87
2024/03/15 00:57:38;;;;;;;14.00;9.67;;;;;;;;;;5023551;28;20185;-87
2024/03/15 01:00:42;;;;;;;13.37;8.57;;;;;;;;;;5023288;28;20533;-88
2024/03/15 01:03:46;;;;;;;8.33;6.77;;;;;;;;;;5035098;28;20586;-87
2024/03/15 01:06:50;;;;;;;7.23;6.13;;;;;;;;;;5035071;28;20645;-88
2024/03/15 01:09:54;;;;;;;8.80;6.30;;;;;;;;;;5034490;28;20180;-87
2024/03/15 01:12:58;;;;;;;11.07;6.23;;;;;;;;;;5034260;28;20216;-87
2024/03/15 01:16:02;;;;;;;8.50;6.13;;;;;;;;;;5034607;28;20177;-87
2024/03/15 01:19:06;;;;;;;8.07;5.80;;;;;;;;;;5035175;28;20184;-88
2024/03/15 01:22:11;;;;;;;8.30;6.30;;;;;;;;;;5034095;28;20223;-87
2024/03/15 01:25:15;;;;;;;7.00;6.23;;;;;;;;;;5034043;28;20205;-87
2024/03/15 01:28:19;;;;;;;10.43;7.20;;;;;;;;;;5023249;28;20177;-87
2024/03/15 01:31:23;;;;;;;7.80;6.20;;;;;;;;;;5033999;28;20526;-88
2024/03/15 01:34:28;;;;;;;8.80;6.47;;;;;;;;;;5022777;28;20549;-88
2024/03/15 01:37:32;;;;;;;9.20;5.70;;;;;;;;;;5022748;28;20185;-88
2024/03/15 01:40:36;;;;;;;10.57;5.57;;;;;;;;;;5022537;28;20569;-87
2024/03/15 01:43:50;;;;;;;7.73;6.00;;;;;;;;;;5034636;28;20224;-88
2024/03/15 01:46:54;;;;;;;5.67;4.87;;;;;;;;;;5034116;28;20181;-88
2024/03/15 01:49:59;;;;;;;6.13;4.70;;;;;;;;;;5022659;28;20196;-87
2024/03/15 01:53:03;;;;;;;7.23;5.30;;;;;;;;;;5022352;28;20225;-87
2024/03/15 01:56:07;;;;;;;6.47;4.80;;;;;;;;;;5033402;28;20177;-87
2024/03/15 01:59:11;;;;;;;5.80;4.80;;;;;;;;;;5033429;28;20184;-88
2024/03/15 02:02:15;;;;;;;7.27;5.07;;;;;;;;;;5033902;28;20220;-88
2024/03/15 02:05:20;;;;;;;7.10;4.70;;;;;;;;;;5033484;28;20208;-87
2024/03/15 02:08:24;;;;;;;5.17;4.10;;;;;;;;;;5022390;28;20188;-88
2024/03/15 02:11:28;;;;;;;5.73;3.90;;;;;;;;;;5033693;28;20180;-88
2024/03/15 02:14:32;;;;;;;4.80;4.03;;;;;;;;;;5034373;28;20176;-87
2024/03/15 02:17:37;;;;;;;5.23;4.27;;;;;;;;;;5033456;28;20185;-88
2024/03/15 02:20:41;;;;;;;5.23;4.53;;;;;;;;;;5034431;28;20207;-86
2024/03/15 02:23:46;;;;;;;6.87;4.50;;;;;;;;;;5034999;28;20589;-86
2024/03/15 02:26:50;;;;;;;4.77;4.27;;;;;;;;;;5034906;28;20189;-86
2024/03/15 02:29:55;;;;;;;5.60;3.90;;;;;;;;;;5034770;28;20661;-87
2024/03/15 02:32:59;;;;;;;5.30;3.80;;;;;;;;;;5023432;28;20224;-87
2024/03/15 02:36:03;;;;;;;5.20;3.80;;;;;;;;;;5036014;28;20177;-87
2024/03/15 02:39:07;;;;;;;4.17;3.53;;;;;;;;;;5034423;28;20176;-86
2024/03/15 02:42:12;;;;;;;4.23;3.27;;;;;;;;;;5023045;28;20224;-87
2024/03/15 02:45:16;;;;;;;3.57;3.10;;;;;;;;;;5039381;28;20204;-86
2024/03/15 02:48:20;;;;;;;4.37;3.13;;;;;;;;;;5039661;28;20637;-86
2024/03/15 02:51:25;;;;;;;4.83;3.43;;;;;;;;;;5038611;28;20184;-87
2024/03/15 02:54:29;;;;;;;7.10;3.60;;;;;;;;;;5027677;28;20633;-86
2024/03/15 02:57:33;;;;;;;3.77;2.93;;;;;;;;;;5015952;28;20181;-88
2024/03/15 03:00:37;;;;;;;3.20;2.90;;;;;;;;;;5038734;28;20189;-86
2024/03/15 03:03:42;;;;;;;2.93;2.70;;;;;;;;;;5038138;28;20696;-86
2024/03/15 03:06:46;;;;;;;4.73;3.00;;;;;;;;;;5038448;28;20184;-86
2024/03/15 03:09:50;;;;;;;4.90;2.63;;;;;;;;;;5026721;28;20184;-86
2024/03/15 03:12:54;;;;;;;3.07;2.70;;;;;;;;;;5038240;28;20633;-86
2024/03/15 03:15:59;;;;;;;4.13;2.90;;;;;;;;;;5015659;28;20181;-87
2024/03/15 03:19:05;;;;;;;3.27;2.70;;;;;;;;;;5038157;28;20177;-86
2024/03/15 03:22:09;;;;;;;2.83;2.53;;;;;;;;;;5038206;28;20220;-86
2024/03/15 03:25:13;;;;;;;4.37;2.60;;;;;;;;;;5037503;28;20205;-86
2024/03/15 03:28:17;;;;;;;3.77;2.53;;;;;;;;;;5038031;28;20177;-86
2024/03/15 03:31:22;;;;;;;4.20;3.20;;;;;;;;;;5026374;28;20181;-86
2024/03/15 03:34:26;;;;;;;4.67;2.70;;;;;;;;;;5038005;28;20177;-86
2024/03/15 03:37:31;;;;;;;8.50;2.70;;;;;;;;;;5040438;28;20181;-87
2024/03/15 03:40:35;;;;;;;4.10;2.83;;;;;;;;;;5042098;28;20544;-85
2024/03/15 03:43:39;;;;;;;5.80;3.13;;;;;;;;;;5030636;28;20228;-85
2024/03/15 03:46:43;;;;;;;7.10;2.60;;;;;;;;;;5019292;28;20177;-85
2024/03/15 03:49:50;;;;;;;4.80;2.70;;;;;;;;;;5041842;28;20185;-85
2024/03/15 03:52:55;;;;;;;4.13;2.70;;;;;;;;;;5019388;28;20212;-87
2024/03/15 03:55:59;;;;;;;3.00;2.70;;;;;;;;;;5030456;28;20189;-85
2024/03/15 03:59:03;;;;;;;6.00;3.20;;;;;;;;;;5030829;28;20537;-85
2024/03/15 04:02:08;;;;;;;3.63;3.00;;;;;;;;;;5019820;28;20220;-85
2024/03/15 04:05:14;;;;;;;4.47;2.50;;;;;;;;;;5042212;28;20275;-85
2024/03/15 04:08:18;;;;;;;3.90;2.73;;;;;;;;;;5031157;28;20189;-86
2024/03/15 04:11:22;;;;;;;3.77;2.93;;;;;;;;;;5019521;28;20181;-86
2024/03/15 04:14:27;;;;;;;3.67;2.60;;;;;;;;;;5029865;28;20184;-86
2024/03/15 04:17:31;;;;;;;5.40;2.73;;;;;;;;;;5018076;28;20185;-85
2024/03/15 04:20:39;;;;;;;3.63;2.60;;;;;;;;;;5030109;28;20177;-85
2024/03/15 04:23:43;;;;;;;2.53;2.33;;;;;;;;;;5015541;28;20224;-86
2024/03/15 04:26:47;;;;;;;3.43;2.50;;;;;;;;;;5037098;28;20173;-86
2024/03/15 04:29:51;;;;;;;2.67;2.30;;;;;;;;;;5025741;28;20184;-86
2024/03/15 04:32:55;;;;;;;5.77;2.50;;;;;;;;;;5038225;28;20216;-86
2024/03/15 04:36:04;;;;;;;3.10;2.40;;;;;;;;;;5025797;28;20181;-86
2024/03/15 04:39:10;;;;;;;3.37;2.60;;;;;;;;;;5037244;28;20197;-86
2024/03/15 04:42:14;;;;;;;3.80;2.70;;;;;;;;;;5037112;28;20220;-87
2024/03/15 04:45:19;;;;;;;6.93;2.50;;;;;;;;;;5025867;28;20569;-87
2024/03/15 04:48:23;;;;;;;4.00;2.50;;;;;;;;;;5037810;28;20181;-87
2024/03/15 04:51:27;;;;;;;6.63;2.93;;;;;;;;;;5036280;28;20181;-86
2024/03/15 04:54:33;;;;;;;3.90;2.80;;;;;;;;;;5036691;28;20181;-86
2024/03/15 04:57:38;;;;;;;2.60;2.40;;;;;;;;;;5037090;28;20181;-86
2024/03/15 05:00:42;;;;;;;3.67;2.30;;;;;;;;;;5025293;28;20181;-86
2024/03/15 05:03:46;;;;;;;3.00;2.47;;;;;;;;;;5036551;28;20581;-86
2024/03/15 05:06:50;;;;;;;4.03;2.53;;;;;;;;;;5035783;28;20173;-87
2024/03/15 05:09:54;;;;;;;3.53;2.27;;;;;;;;;;5025521;28;20189;-87
2024/03/15 05:12:58;;;;;;;3.07;2.43;;;;;;;;;;5025205;28;20693;-87
2024/03/15 05:16:03;;;;;;;4.60;2.20;;;;;;;;;;5025221;28;20181;-86
2024/03/15 05:19:07;;;;;;;5.07;2.60;;;;;;;;;;5036506;28;20177;-86
2024/03/15 05:22:11;;;;;;;3.73;2.70;;;;;;;;;;5035798;28;20704;-87
2024/03/15 05:25:15;;;;;;;3.67;2.50;;;;;;;;;;5025441;28;20204;-86
2024/03/15 05:28:19;;;;;;;3.70;2.50;;;;;;;;;;5035936;28;20185;-86
2024/03/15 05:31:24;;;;;;;4.30;2.90;;;;;;;;;;5036027;28;20549;-87
2024/03/15 05:34:31;;;;;;;3.50;2.43;;;;;;;;;;5024308;28;20181;-87
2024/03/15 05:37:35;;;;;;;3.37;2.67;;;;;;;;;;5035828;28;20181;-87
2024/03/15 05:40:40;;;;;;;4.63;2.73;;;;;;;;;;5012734;28;20185;-86
2024/03/15 05:43:44;;;;;;;6.00;2.80;;;;;;;;;;5036382;28;20220;-87
2024/03/15 05:46:49;;;;;;;3.37;2.47;;;;;;;;;;5035688;28;20533;-86
2024/03/15 05:49:54;;;;;;;3.77;2.73;;;;;;;;;;5036985;28;20185;-86
2024/03/15 05:53:00;;;;;;;3.93;2.83;;;;;;;;;;5024672;28;20221;-86
2024/03/15 05:56:04;;;;;;;3.97;2.80;;;;;;;;;;5035851;28;20177;-86
2024/03/15 05:59:08;;;;;;;5.83;2.83;;;;;;;;;;5035714;28;20184;-88
2024/03/15 06:02:13;;;;;;;3.47;2.70;;;;;;;;;;5036544;28;20220;-86
2024/03/15 06:05:23;;;;;;;3.90;3.13;;;;;;;;;;5024346;28;20204;-87
2024/03/15 06:08:29;;;;;;;5.10;2.97;;;;;;;;;;5035659;28;20181;-87
2024/03/15 06:11:33;;;;;;;3.47;2.87;;;;;;;;;;5035358;28;20590;-86
2024/03/15 06:14:38;;;;;;;4.57;2.83;;;;;;;;;;5035203;28;20189;-86
2024/03/15 06:17:41;;;;;;;3.13;2.67;;;;;;;;;;5036001;28;20541;-87
2024/03/15 06:20:45;;;;;;;3.63;2.70;;;;;;;;;;5035132;28;20185;-87
2024/03/15 06:23:50;;;;;;;16.43;8.23;;;;;;;;;;5034774;28;20223;-87
2024/03/15 06:26:54;;;;;;;71.83;33.67;;;;;;;;;;5035060;28;20204;-89
2024/03/15 06:29:58;;;;;;;20.03;11.27;;;;;;;;;;5022726;28;20189;-89
2024/03/15 06:33:03;;;;;;;10.17;6.23;;;;;;;;;;5033614;28;20216;-89
2024/03/15 06:36:07;;;;;;;9.20;4.00;;;;;;;;;;5033541;28;20173;-89
2024/03/15 06:46:20;;;;;;;6.13;3.00;;;;;;;;;;5021872;28;20201;-90
2024/03/15 07:04:35;;;;;;;3.30;2.60;;;;;;;;;;5032901;28;20181;-91
2024/03/15 07:07:40;;;;;;;3.33;2.27;;;;;;;;;;5032813;28;20177;-90
2024/03/15 07:10:44;;;;;;;2.67;2.10;;;;;;;;;;5033141;28;20523;-91
2024/03/15 07:13:49;;;;;;;3.80;2.30;;;;;;;;;;5033379;28;20212;-91
2024/03/15 07:16:53;;;;;;;2.33;2.13;;;;;;;;;;5021890;28;20625;-90
2024/03/15 07:20:00;;;;;;;4.30;2.70;;;;;;;;;;5021501;28;20185;-91
2024/03/15 07:23:06;;;;;;;4.23;2.33;;;;;;;;;;5033326;28;20232;-90
2024/03/15 07:26:10;;;;;;;2.53;1.93;;;;;;;;;;5021775;28;20204;-91
2024/03/15 07:29:14;;;;;;;5.17;2.27;;;;;;;;;;5034024;28;20185;-90
2024/03/15 07:32:18;;;;;;;3.90;2.03;;;;;;;;;;5024975;28;20220;-88
2024/03/15 07:35:22;;;;;;;2.33;1.90;;;;;;;;;;5038131;28;20649;-88
2024/03/15 07:38:27;;;;;;;3.27;1.70;;;;;;;;;;5027221;28;20177;-89
2024/03/15 07:41:32;;;;;;;2.73;1.97;;;;;;;;;;5025645;28;20181;-88
2024/03/15 07:44:37;;;;;;;2.57;2.10;;;;;;;;;;5037009;28;20177;-89
2024/03/15 07:47:43;;;;;;;2.23;2.00;;;;;;;;;;5002300;28;20174;-89
2024/03/15 07:50:48;;;;;;;2.90;1.87;;;;;;;;;;5013082;28;20177;-89
2024/03/15 07:53:53;;;;;;;6.50;3.90;;;;;;;;;;5024183;28;20322;-89
2024/03/15 07:56:57;;;;;;;5.57;3.80;;;;;;;;;;5024278;28;20177;-89
2024/03/15 08:00:09;;;;;;;6.87;4.30;;;;;;;;;;5036464;28;20181;-88
2024/03/15 08:03:13;;;;;;;3.47;2.00;;;;;;;;;;5024174;28;20216;-88
2024/03/15 08:06:18;;;;;;;3.23;2.20;;;;;;;;;;5035115;28;20204;-88
2024/03/15 08:09:23;;;;;;;4.13;3.73;;;;;;;;;;5036282;28;20180;-88
2024/03/15 08:12:28;;;;;;;4.27;3.63;;;;;;;;;;5023889;28;20213;-88
2024/03/15 08:15:33;;;;;;;5.80;3.20;;;;;;;;;;5023810;28;20522;-89
2024/03/15 08:18:38;;;;;;;2.53;1.97;;;;;;;;;;5012712;28;20181;-88
2024/03/15 08:21:42;;;;;;;2.77;2.40;;;;;;;;;;5034900;28;20185;-86
2024/03/15 08:24:46;;;;;;;3.70;2.70;;;;;;;;;;5024070;28;20177;-87
2024/03/15 08:27:50;;;;;;;3.30;2.50;;;;;;;;;;5038341;28;20177;-83
2024/03/15 08:30:54;;;;;;;4.17;2.80;;;;;;;;;;5039787;28;20184;-84
2024/03/15 08:34:02;;;;;;;2.93;2.50;;;;;;;;;;5037897;28;20181;-86
2024/03/15 08:37:07;;;;;;;5.17;2.10;;;;;;;;;;5032727;28;20236;-86
2024/03/15 08:40:12;;;;;;;3.73;2.60;;;;;;;;;;5036422;28;20185;-86
2024/03/15 08:43:16;;;;;;;11.33;2.63;;;;;;;;;;5035721;28;20770;-86
2024/03/15 08:46:20;;;;;;;2.07;1.83;;;;;;;;;;5035958;28;20685;-85
2024/03/15 08:49:28;;;;;;;3.83;2.07;;;;;;;;;;5036201;28;20181;-86
2024/03/15 08:52:33;;;;;;;4.80;2.73;;;;;;;;;;5025400;28;20212;-86
2024/03/15 08:55:48;;;;;;;3.80;1.90;;;;;;;;;;5025143;28;20169;-86
2024/03/15 08:59:23;;;;;;;3.33;2.67;;;;;;;;;;5036405;28;20196;-86
2024/03/15 09:02:30;;;;;;;3.23;2.00;;;;;;;;;;5025127;28;20213;-86
2024/03/15 09:06:51;;;;;;;8.33;2.00;;;;;;;;;;4994607;28;20225;-86
2024/03/15 09:10:07;;;;;;;3.50;2.40;;;;;;;;;;4984997;28;20212;-86
2024/03/15 09:13:39;;;;;;;2.40;2.03;;;;;;;;;;5035545;28;20220;-86
2024/03/15 09:16:56;;;;;;;3.43;1.80;;;;;;;;;;5006681;28;20630;-86
2024/03/15 09:20:20;;;;;;;3.80;1.63;;;;;;;;;;5036278;28;20181;-86
2024/03/15 09:23:26;;;;;;;1.47;1.30;;;;;;;;;;5016228;28;20228;-86
2024/03/15 09:26:33;;;;;;;1.70;1.40;;;;;;;;;;5025327;28;20213;-86
2024/03/15 09:29:47;;;;;;;4.00;1.70;;;;;;;;;;5013331;28;20188;-86
2024/03/15 09:32:54;;;;;;;7.00;1.90;;;;;;;;;;5046248;28;20221;-87
2024/03/15 09:36:13;;;;;;;3.93;1.87;;;;;;;;;;5013665;28;20172;-87
2024/03/15 09:39:23;;;;;;;2.50;1.70;;;;;;;;;;5036522;28;20185;-86
2024/03/15 09:42:29;;;;;;;2.37;1.73;;;;;;;;;;5046866;28;20217;-86
2024/03/15 09:45:33;;;;;;;2.70;1.50;;;;;;;;;;5023554;28;20189;-86
2024/03/15 09:48:41;;;;;;;2.77;1.70;;;;;;;;;;5035896;28;20193;-86
2024/03/15 09:51:46;;;;;;;2.03;1.50;;;;;;;;;;5023167;28;20645;-86
2024/03/15 09:54:51;;;;;;;2.90;1.70;;;;;;;;;;5046700;28;20185;-86
2024/03/15 09:57:54;;;;;;;2.67;1.80;;;;;;;;;;5035130;28;20643;-86
2024/03/15 10:01:01;;;;;;;6.00;1.80;;;;;;;;;;5022820;28;20177;-87
2024/03/15 10:04:09;;;;;;;3.87;1.70;;;;;;;;;;5034437;28;20188;-87
2024/03/15 10:07:13;;;;;;;1.77;1.50;;;;;;;;;;5034624;28;20208;-86
2024/03/15 10:10:18;;;;;;;5.27;1.60;;;;;;;;;;5035910;28;20530;-86
2024/03/15 10:13:23;;;;;;;2.30;1.60;;;;;;;;;;5023424;28;20216;-87
2024/03/15 10:16:28;;;;;;;2.23;1.70;;;;;;;;;;5037470;28;20169;-87
2024/03/15 10:19:33;;;;;;;2.80;1.67;;;;;;;;;;5038810;28;20172;-86
2024/03/15 10:22:40;;;;;;;2.70;1.80;;;;;;;;;;5080361;22;20232;-85
2024/03/15 10:25:45;;;;;;;3.87;1.77;;;;;;;;;;5053425;28;20184;-86
2024/03/15 10:28:49;;;;;;;4.00;1.70;;;;;;;;;;5040823;28;20219;-87
2024/03/15 10:31:54;;;;;;;2.63;1.63;;;;;;;;;;5053182;28;20172;-86
2024/03/15 10:34:58;;;;;;;2.93;1.80;;;;;;;;;;5033242;28;20174;-86
2024/03/15 10:38:04;;;;;;;3.73;1.77;;;;;;;;;;5033237;28;20172;-87
2024/03/15 10:41:08;;;;;;;2.50;1.87;;;;;;;;;;5033123;28;20181;-86
2024/03/15 10:44:14;;;;;;;4.60;1.70;;;;;;;;;;5032248;28;20701;-86
2024/03/15 10:47:19;;;;;;;5.13;1.53;;;;;;;;;;5020993;28;20211;-86
2024/03/15 10:50:30;;;;;;;3.63;2.00;;;;;;;;;;5033087;28;20520;-86
2024/03/15 10:53:34;;;;;;;3.70;1.90;;;;;;;;;;5020879;28;20214;-86
2024/03/15 10:56:39;;;;;;;6.43;2.20;;;;;;;;;;5032623;28;20176;-88
2024/03/15 10:59:44;;;;;;;2.20;1.87;;;;;;;;;;5033287;28;20182;-87
2024/03/15 11:02:48;;;;;;;1.87;1.27;;;;;;;;;;5034915;28;20215;-84
2024/03/15 11:05:52;;;;;;;4.83;1.60;;;;;;;;;;5039883;28;20181;-84
2024/03/15 11:09:09;;;;;;;2.37;2.00;;;;;;;;;;5039376;28;20170;-84
2024/03/15 11:12:17;;;;;;;1.97;1.40;;;;;;;;;;5040871;28;20645;-84
2024/03/15 11:15:24;;;;;;;5.10;1.70;;;;;;;;;;5039717;28;20183;-83
2024/03/15 11:18:36;;;;;;;8.63;1.80;;;;;;;;;;5040632;28;20175;-84
2024/03/15 11:21:40;;;;;;;3.83;1.83;;;;;;;;;;5039319;28;20187;-84
2024/03/15 11:24:48;;;;;;;4.73;1.70;;;;;;;;;;5039077;28;20176;-83
2024/03/15 11:27:58;;;;;;;4.53;1.57;;;;;;;;;;5038269;28;20218;-84
2024/03/15 11:31:04;;;;;;;3.53;2.00;;;;;;;;;;5038758;28;20184;-84
2024/03/15 11:34:09;;;;;;;3.70;1.97;;;;;;;;;;5037770;28;20560;-83
2024/03/15 11:37:13;;;;;;;3.37;1.60;;;;;;;;;;5037931;28;20637;-83
2024/03/15 11:40:18;;;;;;;4.03;2.27;;;;;;;;;;5038667;28;20181;-83
2024/03/15 11:43:22;;;;;;;3.73;2.00;;;;;;;;;;5039047;28;20556;-83
2024/03/15 11:46:27;;;;;;;3.93;1.90;;;;;;;;;;5044945;28;20176;-83
2024/03/15 11:49:32;;;;;;;5.77;2.10;;;;;;;;;;5039154;28;20181;-84
2024/03/15 11:52:36;;;;;;;2.50;1.50;;;;;;;;;;5040355;28;20217;-84
2024/03/15 11:55:48;;;;;;;1.90;1.40;;;;;;;;;;5039949;28;20185;-83
2024/03/15 11:59:00;;;;;;;1.83;1.50;;;;;;;;;;5039172;28;20173;-84
2024/03/15 12:02:10;;;;;;;4.63;1.77;;;;;;;;;;5039875;28;20177;-83
2024/03/15 12:05:15;;;;;;;4.23;1.70;;;;;;;;;;5038845;28;20177;-83
2024/03/15 12:08:24;;;;;;;5.87;1.73;;;;;;;;;;5039962;28;20210;-83
2024/03/15 12:11:34;;;;;;;3.37;1.70;;;;;;;;;;5039267;28;20178;-83
2024/03/15 12:14:39;;;;;;;4.00;1.80;;;;;;;;;;5038832;28;20186;-83
2024/03/15 12:17:44;;;;;;;4.43;2.20;;;;;;;;;;5038346;28;20648;-84
2024/03/15 12:20:52;;;;;;;3.50;1.70;;;;;;;;;;5038501;28;20184;-84
2024/03/15 12:23:56;;;;;;;4.40;1.50;;;;;;;;;;5038727;28;20229;-85
2024/03/15 12:27:01;;;;;;;2.77;1.70;;;;;;;;;;5035820;28;20215;-88
2024/03/15 12:30:10;;;;;;;5.83;1.50;;;;;;;;;;5035130;28;20534;-89
2024/03/15 12:33:15;;;;;;;2.37;1.90;;;;;;;;;;5034840;28;20227;-88
2024/03/15 12:36:20;;;;;;;3.17;1.77;;;;;;;;;;5023399;28;20185;-89
2024/03/15 12:39:24;;;;;;;3.33;1.70;;;;;;;;;;5012121;28;20173;-89
2024/03/15 12:42:29;;;;;;;3.20;1.80;;;;;;;;;;5023349;28;20220;-89
2024/03/15 12:45:33;;;;;;;2.60;1.70;;;;;;;;;;5023229;28;20639;-89
2024/03/15 12:48:37;;;;;;;5.27;2.07;;;;;;;;;;5023424;28;20205;-89
2024/03/15 12:51:41;;;;;;;3.10;1.90;;;;;;;;;;5022891;28;20638;-86
2024/03/15 12:54:45;;;;;;;4.03;1.77;;;;;;;;;;5023183;28;20176;-89
2024/03/15 12:57:49;;;;;;;2.93;1.97;;;;;;;;;;5023060;28;20173;-89
2024/03/15 13:00:54;;;;;;;2.30;1.73;;;;;;;;;;5022947;28;20173;-88
2024/03/15 13:03:58;;;;;;;5.33;2.00;;;;;;;;;;5034144;28;20221;-87
2024/03/15 13:07:02;;;;;;;3.10;2.00;;;;;;;;;;5034084;28;20205;-85
2024/03/15 13:10:06;;;;;;;3.77;2.23;;;;;;;;;;5022505;28;20527;-86
2024/03/15 13:13:11;;;;;;;3.10;2.07;;;;;;;;;;5022330;28;20570;-86
2024/03/15 13:16:15;;;;;;;3.03;2.10;;;;;;;;;;5034069;28;20182;-86
2024/03/15 13:19:19;;;;;;;2.60;1.77;;;;;;;;;;5033841;28;20180;-86
2024/03/15 13:22:23;;;;;;;2.97;1.77;;;;;;;;;;5023820;28;20228;-83
2024/03/15 13:25:28;;;;;;;4.10;1.90;;;;;;;;;;5036113;28;20174;-83
2024/03/15 13:28:32;;;;;;;2.27;1.60;;;;;;;;;;5035959;28;20203;-84
2024/03/15 13:31:37;;;;;;;3.13;1.73;;;;;;;;;;5037732;28;20184;-84
2024/03/15 13:34:44;;;;;;;4.37;1.93;;;;;;;;;;5036451;28;20182;-84
2024/03/15 13:37:52;;;;;;;4.73;1.73;;;;;;;;;;5035498;28;20174;-86
2024/03/15 13:40:56;;;;;;;3.37;1.67;;;;;;;;;;5033799;28;20189;-88
2024/03/15 13:44:00;;;;;;;3.20;1.80;;;;;;;;;;5033145;28;20696;-88
2024/03/15 13:47:07;;;;;;;5.17;1.73;;;;;;;;;;5033467;28;20177;-87
2024/03/15 13:50:17;;;;;;;2.93;1.50;;;;;;;;;;5034051;28;20181;-87
2024/03/15 13:53:21;;;;;;;2.97;1.70;;;;;;;;;;5021983;28;20593;-87
2024/03/15 13:56:25;;;;;;;4.57;2.00;;;;;;;;;;5033080;28;20522;-88
2024/03/15 13:59:30;;;;;;;3.00;1.83;;;;;;;;;;5033118;28;20176;-87
2024/03/15 14:02:35;;;;;;;6.03;2.07;;;;;;;;;;5022138;28;20212;-85
2024/03/15 14:05:40;;;;;;;2.53;1.60;;;;;;;;;;5033487;28;20641;-87
2024/03/15 14:08:44;;;;;;;4.13;2.00;;;;;;;;;;5033159;28;20201;-87
2024/03/15 14:11:48;;;;;;;4.17;1.83;;;;;;;;;;5021573;28;20181;-86
2024/03/15 14:14:52;;;;;;;4.23;2.00;;;;;;;;;;5033795;28;20180;-86
2024/03/15 14:18:00;;;;;;;4.13;1.80;;;;;;;;;;5021545;28;20181;-87
2024/03/15 14:21:04;;;;;;;2.53;1.50;;;;;;;;;;5032740;28;20189;-87
2024/03/15 14:24:10;;;;;;;2.13;1.73;;;;;;;;;;5032543;28;20224;-88
2024/03/15 14:27:14;;;;;;;5.60;1.80;;;;;;;;;;5033383;28;20181;-88
2024/03/15 14:30:18;;;;;;;2.33;1.47;;;;;;;;;;5021213;28;20181;-87
2024/03/15 14:33:22;;;;;;;2.53;1.50;;;;;;;;;;5032570;28;20216;-87
2024/03/15 14:36:31;;;;;;;3.70;1.70;;;;;;;;;;5034061;28;20181;-87
2024/03/15 14:39:38;;;;;;;3.60;1.30;;;;;;;;;;5035492;28;20169;-87
2024/03/15 14:42:44;;;;;;;4.27;1.40;;;;;;;;;;5036802;28;20216;-87
2024/03/15 14:45:49;;;;;;;2.43;0.93;;;;;;;;;;5025293;28;20202;-87
2024/03/15 14:48:53;;;;;;;6.87;1.10;;;;;;;;;;5014114;28;20212;-86
2024/03/15 14:51:57;;;;;;;2.93;1.50;;;;;;;;;;5025630;28;20641;-85
2024/03/15 14:55:03;;;;;;;5.07;1.40;;;;;;;;;;5037214;28;20172;-86
2024/03/15 14:58:07;;;;;;;7.13;1.07;;;;;;;;;;5037192;28;20173;-87
2024/03/15 15:01:11;;;;;;;3.03;0.90;;;;;;;;;;5036380;28;20184;-86
2024/03/15 15:04:16;;;;;;;2.27;1.40;;;;;;;;;;5024722;28;20219;-86
2024/03/15 15:07:22;;;;;;;1.63;0.80;;;;;;;;;;5036227;28;20176;-86
2024/03/15 15:10:29;;;;;;;2.00;0.87;;;;;;;;;;5036244;28;20177;-87
2024/03/15 15:13:34;;;;;;;1.83;0.70;;;;;;;;;;5036129;28;20217;-87
2024/03/15 15:16:39;;;;;;;1.57;0.80;;;;;;;;;;5024851;28;20181;-87
2024/03/15 15:19:43;;;;;;;2.53;1.87;;;;;;;;;;5024773;28;20173;-86
2024/03/15 15:22:49;;;;;;;5.40;2.03;;;;;;;;;;5024461;28;20242;-86
2024/03/15 15:25:53;;;;;;;4.37;2.57;;;;;;;;;;5035677;28;20176;-85
2024/03/15 15:29:00;;;;;;;1.80;1.50;;;;;;;;;;5024887;28;20558;-86
2024/03/15 15:32:05;;;;;;;5.97;1.47;;;;;;;;;;5024747;28;20534;-87
2024/03/15 15:35:09;;;;;;;2.40;1.43;;;;;;;;;;5035730;28;20181;-87
2024/03/15 15:38:13;;;;;;;3.93;1.90;;;;;;;;;;5035559;28;20177;-86
2024/03/15 15:41:17;;;;;;;3.50;2.03;;;;;;;;;;5024786;28;20181;-87
2024/03/15 15:44:22;;;;;;;3.37;1.57;;;;;;;;;;5024337;28;20526;-88
2024/03/15 15:47:26;;;;;;;5.03;2.33;;;;;;;;;;5024133;28;20176;-87
2024/03/15 15:50:30;;;;;;;2.67;1.60;;;;;;;;;;5034673;28;20177;-88
2024/03/15 15:53:36;;;;;;;6.47;1.90;;;;;;;;;;5035445;28;20212;-89
2024/03/15 15:56:40;;;;;;;4.17;2.17;;;;;;;;;;5024165;28;20184;-88
2024/03/15 15:59:44;;;;;;;9.57;5.53;;;;;;;;;;5023864;28;20518;-88
2024/03/15 16:02:48;;;;;;;6.53;2.80;;;;;;;;;;5036051;28;20283;-88
2024/03/15 16:05:54;;;;;;;5.40;2.43;;;;;;;;;;5023921;28;20187;-87
2024/03/15 16:09:12;;;;;;;3.20;1.80;;;;;;;;;;5035854;28;20205;-87
2024/03/15 16:12:16;;;;;;;5.87;1.90;;;;;;;;;;5034997;28;20221;-87
2024/03/15 16:15:21;;;;;;;4.47;2.50;;;;;;;;;;5034856;28;20526;-87
2024/03/15 16:18:25;;;;;;;3.93;2.37;;;;;;;;;;5035672;28;20173;-88
2024/03/15 16:21:29;;;;;;;6.90;2.60;;;;;;;;;;5023686;28;20518;-87
2024/03/15 16:24:34;;;;;;;4.53;3.07;;;;;;;;;;5044906;28;20189;-84
2024/03/15 16:27:38;;;;;;;5.30;4.13;;;;;;;;;;5039413;28;20180;-84
2024/03/15 16:30:43;;;;;;;2.93;2.53;;;;;;;;;;5040725;28;20181;-84
2024/03/15 16:33:48;;;;;;;3.00;2.33;;;;;;;;;;5039576;28;20212;-83
2024/03/15 16:36:52;;;;;;;4.57;2.20;;;;;;;;;;5038232;28;20177;-85
2024/03/15 16:39:56;;;;;;;5.17;2.70;;;;;;;;;;5034788;28;20177;-85
2024/03/15 16:43:04;;;;;;;1.97;1.60;;;;;;;;;;5035374;28;20212;-84
2024/03/15 16:46:08;;;;;;;2.23;2.03;;;;;;;;;;5035200;28;20641;-85
2024/03/15 16:49:13;;;;;;;3.23;2.17;;;;;;;;;;5034781;28;20209;-85
2024/03/15 16:52:18;;;;;;;3.30;1.80;;;;;;;;;;5034527;28;20212;-85
2024/03/15 16:55:24;;;;;;;1.97;1.57;;;;;;;;;;5035014;28;20180;-85
2024/03/15 16:58:29;;;;;;;4.60;1.87;;;;;;;;;;5023180;28;20523;-85
2024/03/15 17:01:33;;;;;;;2.00;1.60;;;;;;;;;;5022232;28;20185;-85
2024/03/15 17:04:39;;;;;;;6.33;1.53;;;;;;;;;;5023388;28;20181;-84
2024/03/15 17:07:44;;;;;;;3.50;1.50;;;;;;;;;;5024861;28;20177;-85
2024/03/15 17:10:49;;;;;;;1.50;1.33;;;;;;;;;;5023415;28;20181;-85
2024/03/15 17:13:53;;;;;;;2.90;1.50;;;;;;;;;;5022378;28;20216;-85
2024/03/15 17:16:59;;;;;;;5.43;1.40;;;;;;;;;;5023634;28;20177;-84
2024/03/15 17:20:04;;;;;;;2.50;1.30;;;;;;;;;;5033977;28;20177;-85
2024/03/15 17:23:08;;;;;;;5.80;2.03;;;;;;;;;;5022472;28;20224;-85
2024/03/15 17:26:14;;;;;;;4.13;1.90;;;;;;;;;;5034373;28;20185;-84
2024/03/15 17:29:18;;;;;;;3.00;1.77;;;;;;;;;;5034148;28;20200;-84
2024/03/15 17:32:22;;;;;;;3.10;1.87;;;;;;;;;;5034143;28;20212;-85
2024/03/15 17:35:29;;;;;;;4.83;1.97;;;;;;;;;;5034486;28;20172;-85
2024/03/15 17:38:33;;;;;;;3.83;1.50;;;;;;;;;;5022617;28;20177;-84
2024/03/15 17:41:37;;;;;;;3.10;1.77;;;;;;;;;;5038909;28;20176;-85
2024/03/15 17:44:42;;;;;;;3.33;1.80;;;;;;;;;;5053866;28;20661;-85
2024/03/15 17:47:46;;;;;;;2.23;1.60;;;;;;;;;;5025637;28;20180;-85
2024/03/15 17:50:51;;;;;;;3.33;1.70;;;;;;;;;;5027936;28;20165;-85
2024/03/15 17:53:56;;;;;;;1.93;1.50;;;;;;;;;;5037299;28;20212;-84
2024/03/15 17:57:00;;;;;;;4.73;2.10;;;;;;;;;;5026011;28;20177;-85
2024/03/15 18:00:11;;;;;;;4.40;2.13;;;;;;;;;;5037774;28;20211;-85
2024/03/15 18:03:15;;;;;;;2.70;2.13;;;;;;;;;;5035825;28;20213;-83
2024/03/15 18:06:22;;;;;;;2.63;2.10;;;;;;;;;;5034274;28;20180;-84
2024/03/15 18:09:26;;;;;;;2.80;2.17;;;;;;;;;;5022853;28;20212;-84
2024/03/15 18:12:32;;;;;;;4.90;2.40;;;;;;;;;;5036653;28;20212;-85
2024/03/15 18:15:38;;;;;;;4.17;2.80;;;;;;;;;;5013597;28;20185;-84
2024/03/15 18:18:42;;;;;;;4.23;3.17;;;;;;;;;;5024978;28;20169;-84
2024/03/15 18:21:46;;;;;;;4.67;2.93;;;;;;;;;;5037169;28;20177;-84
2024/03/15 18:24:52;;;;;;;3.80;3.00;;;;;;;;;;5035533;28;20207;-84
2024/03/15 18:27:58;;;;;;;6.53;3.10;;;;;;;;;;5024118;28;20185;-84
2024/03/15 18:31:05;;;;;;;4.40;3.67;;;;;;;;;;5023724;28;20539;-84
2024/03/15 18:34:09;;;;;;;5.00;3.57;;;;;;;;;;5034679;28;20554;-87
2024/03/15 18:37:14;;;;;;;4.17;3.20;;;;;;;;;;5032659;28;20177;-86
2024/03/15 18:40:18;;;;;;;6.03;3.67;;;;;;;;;;5021428;28;20173;-86
2024/03/15 18:43:22;;;;;;;4.90;3.43;;;;;;;;;;5021203;28;20212;-86
2024/03/15 18:46:26;;;;;;;5.53;3.93;;;;;;;;;;5032470;28;20185;-87
2024/03/15 18:49:30;;;;;;;4.50;3.70;;;;;;;;;;5021441;28;20582;-86
2024/03/15 18:52:34;;;;;;;5.03;3.30;;;;;;;;;;5032350;28;20696;-86